sensor_id;sensor_type;location;lat;lon;timestamp;P1;durP1;ratioP1;P2;durP2;ratioP2
82722;SDS011;72450;42.008;21.356;2023-10-09T00:00:12;103.63;;;49.58;;
82722;SDS011;72450;42.008;21.356;2023-10-09T00:02:56;84.72;;;41.92;;
82722;SDS011;72450;42.008;21.356;2023-10-09T00:05:26;68.18;;;32.88;;
82722;SDS011;72450;42.008;21.356;2023-10-09T00:08:11;58.20;;;28.77;;
82722;SDS011;72450;42.008;21.356;2023-10-09T00:10:47;41.88;;;17.98;;
82722;SDS011;72450;42.008;21.356;2023-10-09T00:13:26;31.02;;;15.50;;
82722;SDS011;72450;42.008;21.356;2023-10-09T00:16:00;30.05;;;13.25;;
82722;SDS011;72450;42.008;21.356;2023-10-09T00:18:33;26.23;;;11.77;;
82722;SDS011;72450;42.008;21.356;2023-10-09T00:21:00;27.08;;;11.80;;
82722;SDS011;72450;42.008;21.356;2023-10-09T00:23:36;24.55;;;9.15;;
82722;SDS011;72450;42.008;21.356;2023-10-09T00:26:02;22.80;;;9.25;;
82722;SDS011;72450;42.008;21.356;2023-10-09T00:28:34;19.85;;;9.65;;
82722;SDS011;72450;42.008;21.356;2023-10-09T00:31:00;16.13;;;7.95;;
82722;SDS011;72450;42.008;21.356;2023-10-09T00:33:30;20.88;;;9.48;;
82722;SDS011;72450;42.008;21.356;2023-10-09T00:36:00;18.70;;;7.55;;
82722;SDS011;72450;42.008;21.356;2023-10-09T00:38:34;16.52;;;7.60;;
82722;SDS011;72450;42.008;21.356;2023-10-09T00:41:00;23.20;;;9.73;;
82722;SDS011;72450;42.008;21.356;2023-10-09T00:43:36;25.02;;;9.45;;
82722;SDS011;72450;42.008;21.356;2023-10-09T00:48:29;19.88;;;7.68;;
82722;SDS011;72450;42.008;21.356;2023-10-09T00:51:02;22.40;;;10.15;;
82722;SDS011;72450;42.008;21.356;2023-10-09T00:53:33;23.05;;;9.32;;
82722;SDS011;72450;42.008;21.356;2023-10-09T00:55:59;31.00;;;9.68;;
82722;SDS011;72450;42.008;21.356;2023-10-09T00:58:46;17.20;;;8.13;;
82722;SDS011;72450;42.008;21.356;2023-10-09T01:01:33;14.57;;;6.20;;
82722;SDS011;72450;42.008;21.356;2023-10-09T01:04:02;17.85;;;7.18;;
82722;SDS011;72450;42.008;21.356;2023-10-09T01:06:42;19.90;;;7.63;;
82722;SDS011;72450;42.008;21.356;2023-10-09T01:09:12;17.90;;;6.75;;
82722;SDS011;72450;42.008;21.356;2023-10-09T01:11:42;23.15;;;6.80;;
82722;SDS011;72450;42.008;21.356;2023-10-09T01:14:31;18.75;;;6.15;;
82722;SDS011;72450;42.008;21.356;2023-10-09T01:17:02;19.48;;;5.80;;
82722;SDS011;72450;42.008;21.356;2023-10-09T01:19:32;17.35;;;5.85;;
82722;SDS011;72450;42.008;21.356;2023-10-09T01:21:59;16.63;;;5.90;;
82722;SDS011;72450;42.008;21.356;2023-10-09T01:24:41;9.18;;;4.53;;
82722;SDS011;72450;42.008;21.356;2023-10-09T01:29:40;15.80;;;4.68;;
82722;SDS011;72450;42.008;21.356;2023-10-09T01:32:11;11.85;;;6.28;;
82722;SDS011;72450;42.008;21.356;2023-10-09T01:34:44;14.35;;;4.93;;
82722;SDS011;72450;42.008;21.356;2023-10-09T01:37:18;13.57;;;5.65;;
82722;SDS011;72450;42.008;21.356;2023-10-09T01:39:51;14.63;;;5.72;;
82722;SDS011;72450;42.008;21.356;2023-10-09T01:42:18;15.38;;;5.22;;
82722;SDS011;72450;42.008;21.356;2023-10-09T01:45:02;11.43;;;5.38;;
82722;SDS011;72450;42.008;21.356;2023-10-09T01:47:44;14.38;;;4.70;;
82722;SDS011;72450;42.008;21.356;2023-10-09T01:50:16;10.32;;;4.80;;
82722;SDS011;72450;42.008;21.356;2023-10-09T01:52:52;11.32;;;4.93;;
82722;SDS011;72450;42.008;21.356;2023-10-09T01:55:18;10.93;;;4.95;;
82722;SDS011;72450;42.008;21.356;2023-10-09T01:58:03;10.70;;;4.63;;
82722;SDS011;72450;42.008;21.356;2023-10-09T02:00:52;10.90;;;3.80;;
82722;SDS011;72450;42.008;21.356;2023-10-09T02:03:22;14.95;;;4.65;;
82722;SDS011;72450;42.008;21.356;2023-10-09T02:05:54;9.63;;;4.53;;
82722;SDS011;72450;42.008;21.356;2023-10-09T02:08:24;7.97;;;3.97;;
82722;SDS011;72450;42.008;21.356;2023-10-09T02:10:52;13.93;;;4.97;;
82722;SDS011;72450;42.008;21.356;2023-10-09T02:13:21;10.68;;;4.57;;
82722;SDS011;72450;42.008;21.356;2023-10-09T02:18:24;11.60;;;4.07;;
82722;SDS011;72450;42.008;21.356;2023-10-09T02:20:52;13.32;;;3.80;;
82722;SDS011;72450;42.008;21.356;2023-10-09T02:23:25;11.00;;;4.00;;
82722;SDS011;72450;42.008;21.356;2023-10-09T02:25:58;11.13;;;4.22;;
82722;SDS011;72450;42.008;21.356;2023-10-09T02:28:31;13.45;;;4.70;;
82722;SDS011;72450;42.008;21.356;2023-10-09T02:30:58;12.55;;;4.88;;
82722;SDS011;72450;42.008;21.356;2023-10-09T02:33:35;12.38;;;4.07;;
82722;SDS011;72450;42.008;21.356;2023-10-09T02:36:10;10.52;;;4.10;;
82722;SDS011;72450;42.008;21.356;2023-10-09T02:38:38;7.97;;;4.07;;
82722;SDS011;72450;42.008;21.356;2023-10-09T02:41:07;13.93;;;4.55;;
82722;SDS011;72450;42.008;21.356;2023-10-09T02:43:39;12.23;;;4.28;;
82722;SDS011;72450;42.008;21.356;2023-10-09T02:46:15;11.32;;;4.13;;
82722;SDS011;72450;42.008;21.356;2023-10-09T02:48:48;12.20;;;4.03;;
82722;SDS011;72450;42.008;21.356;2023-10-09T02:51:21;12.40;;;5.20;;
82722;SDS011;72450;42.008;21.356;2023-10-09T02:54:00;13.35;;;4.80;;
82722;SDS011;72450;42.008;21.356;2023-10-09T02:56:52;14.02;;;4.68;;
82722;SDS011;72450;42.008;21.356;2023-10-09T02:59:42;13.10;;;4.82;;
82722;SDS011;72450;42.008;21.356;2023-10-09T03:02:10;9.23;;;4.15;;
82722;SDS011;72450;42.008;21.356;2023-10-09T03:04:36;18.55;;;5.20;;
82722;SDS011;72450;42.008;21.356;2023-10-09T03:07:04;19.30;;;5.43;;
82722;SDS011;72450;42.008;21.356;2023-10-09T03:09:32;13.80;;;4.43;;
82722;SDS011;72450;42.008;21.356;2023-10-09T03:12:01;12.38;;;5.30;;
82722;SDS011;72450;42.008;21.356;2023-10-09T03:14:28;18.60;;;5.10;;
82722;SDS011;72450;42.008;21.356;2023-10-09T03:16:54;14.85;;;4.80;;
82722;SDS011;72450;42.008;21.356;2023-10-09T03:19:25;11.15;;;4.32;;
82722;SDS011;72450;42.008;21.356;2023-10-09T03:21:51;10.80;;;3.70;;
82722;SDS011;72450;42.008;21.356;2023-10-09T03:24:17;11.02;;;4.63;;
82722;SDS011;72450;42.008;21.356;2023-10-09T03:26:45;14.45;;;4.68;;
82722;SDS011;72450;42.008;21.356;2023-10-09T03:29:11;10.93;;;4.05;;
82722;SDS011;72450;42.008;21.356;2023-10-09T03:31:37;10.43;;;3.58;;
82722;SDS011;72450;42.008;21.356;2023-10-09T03:34:04;13.68;;;4.82;;
82722;SDS011;72450;42.008;21.356;2023-10-09T03:36:30;8.07;;;3.50;;
82722;SDS011;72450;42.008;21.356;2023-10-09T03:39:02;8.45;;;3.78;;
82722;SDS011;72450;42.008;21.356;2023-10-09T03:41:33;8.90;;;3.58;;
82722;SDS011;72450;42.008;21.356;2023-10-09T03:44:05;9.77;;;4.00;;
82722;SDS011;72450;42.008;21.356;2023-10-09T03:46:32;5.80;;;2.88;;
82722;SDS011;72450;42.008;21.356;2023-10-09T03:48:58;6.93;;;3.38;;
82722;SDS011;72450;42.008;21.356;2023-10-09T03:51:35;5.20;;;3.50;;
82722;SDS011;72450;42.008;21.356;2023-10-09T03:54:02;6.90;;;3.42;;
82722;SDS011;72450;42.008;21.356;2023-10-09T03:56:34;8.20;;;3.10;;
82722;SDS011;72450;42.008;21.356;2023-10-09T03:59:01;6.40;;;3.10;;
82722;SDS011;72450;42.008;21.356;2023-10-09T04:01:29;7.95;;;3.95;;
82722;SDS011;72450;42.008;21.356;2023-10-09T04:04:03;6.40;;;3.72;;
82722;SDS011;72450;42.008;21.356;2023-10-09T04:06:31;11.07;;;3.60;;
82722;SDS011;72450;42.008;21.356;2023-10-09T04:09:01;8.95;;;3.17;;
82722;SDS011;72450;42.008;21.356;2023-10-09T04:11:43;8.48;;;3.58;;
82722;SDS011;72450;42.008;21.356;2023-10-09T04:14:11;8.55;;;3.08;;
82722;SDS011;72450;42.008;21.356;2023-10-09T04:16:49;8.18;;;3.65;;
82722;SDS011;72450;42.008;21.356;2023-10-09T04:19:28;8.93;;;3.78;;
82722;SDS011;72450;42.008;21.356;2023-10-09T04:21:54;7.05;;;3.65;;
82722;SDS011;72450;42.008;21.356;2023-10-09T04:24:23;6.28;;;3.53;;
82722;SDS011;72450;42.008;21.356;2023-10-09T04:26:50;8.82;;;3.38;;
82722;SDS011;72450;42.008;21.356;2023-10-09T04:29:22;8.18;;;3.45;;
82722;SDS011;72450;42.008;21.356;2023-10-09T04:31:54;10.15;;;4.07;;
82722;SDS011;72450;42.008;21.356;2023-10-09T04:34:22;10.57;;;4.05;;
82722;SDS011;72450;42.008;21.356;2023-10-09T04:37:08;13.50;;;4.40;;
82722;SDS011;72450;42.008;21.356;2023-10-09T04:39:43;11.13;;;4.10;;
82722;SDS011;72450;42.008;21.356;2023-10-09T04:42:13;9.68;;;4.32;;
82722;SDS011;72450;42.008;21.356;2023-10-09T04:45:03;10.27;;;3.97;;
82722;SDS011;72450;42.008;21.356;2023-10-09T04:50:08;8.07;;;3.60;;
82722;SDS011;72450;42.008;21.356;2023-10-09T04:53:00;8.93;;;3.70;;
82722;SDS011;72450;42.008;21.356;2023-10-09T04:55:46;11.15;;;4.18;;
82722;SDS011;72450;42.008;21.356;2023-10-09T04:58:22;9.27;;;4.05;;
82722;SDS011;72450;42.008;21.356;2023-10-09T05:00:49;9.88;;;3.85;;
82722;SDS011;72450;42.008;21.356;2023-10-09T05:03:24;8.38;;;4.70;;
82722;SDS011;72450;42.008;21.356;2023-10-09T05:06:11;9.55;;;3.42;;
82722;SDS011;72450;42.008;21.356;2023-10-09T05:08:49;11.35;;;4.72;;
82722;SDS011;72450;42.008;21.356;2023-10-09T05:11:21;7.53;;;4.00;;
82722;SDS011;72450;42.008;21.356;2023-10-09T05:14:18;10.07;;;3.72;;
82722;SDS011;72450;42.008;21.356;2023-10-09T05:16:52;11.75;;;3.67;;
82722;SDS011;72450;42.008;21.356;2023-10-09T05:19:26;13.23;;;4.78;;
82722;SDS011;72450;42.008;21.356;2023-10-09T05:22:07;8.38;;;4.30;;
82722;SDS011;72450;42.008;21.356;2023-10-09T05:24:41;15.27;;;6.30;;
82722;SDS011;72450;42.008;21.356;2023-10-09T05:27:10;13.13;;;5.43;;
82722;SDS011;72450;42.008;21.356;2023-10-09T05:29:42;13.48;;;4.93;;
82722;SDS011;72450;42.008;21.356;2023-10-09T05:32:24;12.77;;;4.97;;
82722;SDS011;72450;42.008;21.356;2023-10-09T05:35:00;15.20;;;4.20;;
82722;SDS011;72450;42.008;21.356;2023-10-09T05:37:26;10.77;;;3.85;;
82722;SDS011;72450;42.008;21.356;2023-10-09T05:39:59;8.10;;;3.63;;
82722;SDS011;72450;42.008;21.356;2023-10-09T05:45:13;7.75;;;4.10;;
82722;SDS011;72450;42.008;21.356;2023-10-09T05:47:42;7.28;;;3.70;;
82722;SDS011;72450;42.008;21.356;2023-10-09T05:50:21;9.40;;;3.90;;
82722;SDS011;72450;42.008;21.356;2023-10-09T05:52:48;11.25;;;4.28;;
82722;SDS011;72450;42.008;21.356;2023-10-09T06:00:29;9.50;;;3.63;;
82722;SDS011;72450;42.008;21.356;2023-10-09T06:03:14;6.65;;;3.75;;
82722;SDS011;72450;42.008;21.356;2023-10-09T06:08:26;7.88;;;3.67;;
82722;SDS011;72450;42.008;21.356;2023-10-09T06:11:13;4.10;;;3.42;;
82722;SDS011;72450;42.008;21.356;2023-10-09T06:13:58;6.32;;;3.30;;
82722;SDS011;72450;42.008;21.356;2023-10-09T06:16:27;9.73;;;3.50;;
82722;SDS011;72450;42.008;21.356;2023-10-09T06:19:06;13.80;;;4.10;;
82722;SDS011;72450;42.008;21.356;2023-10-09T06:21:44;12.43;;;4.45;;
82722;SDS011;72450;42.008;21.356;2023-10-09T06:24:29;13.07;;;5.20;;
82722;SDS011;72450;42.008;21.356;2023-10-09T06:26:59;14.05;;;5.18;;
82722;SDS011;72450;42.008;21.356;2023-10-09T06:29:28;15.20;;;4.93;;
82722;SDS011;72450;42.008;21.356;2023-10-09T06:32:03;12.60;;;5.60;;
82722;SDS011;72450;42.008;21.356;2023-10-09T06:34:43;11.45;;;5.38;;
82722;SDS011;72450;42.008;21.356;2023-10-09T06:37:16;8.65;;;5.40;;
82722;SDS011;72450;42.008;21.356;2023-10-09T06:39:49;10.02;;;4.95;;
82722;SDS011;72450;42.008;21.356;2023-10-09T06:42:16;9.70;;;5.60;;
82722;SDS011;72450;42.008;21.356;2023-10-09T06:45:04;10.20;;;5.35;;
82722;SDS011;72450;42.008;21.356;2023-10-09T06:50:20;12.00;;;5.72;;
82722;SDS011;72450;42.008;21.356;2023-10-09T06:52:46;11.20;;;5.07;;
82722;SDS011;72450;42.008;21.356;2023-10-09T06:55:22;9.20;;;5.15;;
82722;SDS011;72450;42.008;21.356;2023-10-09T06:57:59;10.93;;;6.10;;
82722;SDS011;72450;42.008;21.356;2023-10-09T07:00:27;12.30;;;5.80;;
82722;SDS011;72450;42.008;21.356;2023-10-09T07:03:12;11.68;;;6.20;;
82722;SDS011;72450;42.008;21.356;2023-10-09T07:05:38;12.98;;;5.50;;
82722;SDS011;72450;42.008;21.356;2023-10-09T07:08:25;12.13;;;5.38;;
82722;SDS011;72450;42.008;21.356;2023-10-09T07:10:58;9.38;;;5.70;;
82722;SDS011;72450;42.008;21.356;2023-10-09T07:13:44;11.43;;;5.57;;
82722;SDS011;72450;42.008;21.356;2023-10-09T07:16:22;9.85;;;5.97;;
82722;SDS011;72450;42.008;21.356;2023-10-09T07:18:48;10.65;;;5.65;;
82722;SDS011;72450;42.008;21.356;2023-10-09T07:21:15;12.93;;;5.90;;
82722;SDS011;72450;42.008;21.356;2023-10-09T07:23:51;13.25;;;6.53;;
82722;SDS011;72450;42.008;21.356;2023-10-09T07:26:22;15.38;;;6.60;;
82722;SDS011;72450;42.008;21.356;2023-10-09T07:31:41;11.30;;;5.25;;
82722;SDS011;72450;42.008;21.356;2023-10-09T07:34:10;11.98;;;5.97;;
82722;SDS011;72450;42.008;21.356;2023-10-09T07:36:56;8.27;;;4.93;;
82722;SDS011;72450;42.008;21.356;2023-10-09T07:39:22;9.35;;;5.07;;
82722;SDS011;72450;42.008;21.356;2023-10-09T07:41:48;10.77;;;5.50;;
82722;SDS011;72450;42.008;21.356;2023-10-09T07:44:21;10.90;;;6.15;;
82722;SDS011;72450;42.008;21.356;2023-10-09T07:47:01;8.20;;;5.20;;
82722;SDS011;72450;42.008;21.356;2023-10-09T07:49:46;16.60;;;6.13;;
82722;SDS011;72450;42.008;21.356;2023-10-09T07:52:18;6.75;;;4.88;;
82722;SDS011;72450;42.008;21.356;2023-10-09T07:54:47;9.13;;;4.90;;
82722;SDS011;72450;42.008;21.356;2023-10-09T07:57:20;14.13;;;5.53;;
82722;SDS011;72450;42.008;21.356;2023-10-09T07:59:51;14.13;;;5.07;;
82722;SDS011;72450;42.008;21.356;2023-10-09T08:02:25;8.93;;;5.30;;
82722;SDS011;72450;42.008;21.356;2023-10-09T08:05:01;13.25;;;5.22;;
82722;SDS011;72450;42.008;21.356;2023-10-09T08:07:47;8.10;;;4.13;;
82722;SDS011;72450;42.008;21.356;2023-10-09T08:10:33;9.80;;;4.60;;
82722;SDS011;72450;42.008;21.356;2023-10-09T08:13:28;9.52;;;4.20;;
82722;SDS011;72450;42.008;21.356;2023-10-09T08:16:13;9.45;;;4.00;;
82722;SDS011;72450;42.008;21.356;2023-10-09T08:18:47;9.88;;;3.55;;
82722;SDS011;72450;42.008;21.356;2023-10-09T08:21:16;7.18;;;3.90;;
82722;SDS011;72450;42.008;21.356;2023-10-09T08:23:42;8.82;;;3.45;;
82722;SDS011;72450;42.008;21.356;2023-10-09T08:26:15;10.23;;;3.80;;
82722;SDS011;72450;42.008;21.356;2023-10-09T08:28:54;8.63;;;3.58;;
82722;SDS011;72450;42.008;21.356;2023-10-09T08:31:40;8.57;;;3.63;;
82722;SDS011;72450;42.008;21.356;2023-10-09T08:34:21;5.65;;;3.60;;
82722;SDS011;72450;42.008;21.356;2023-10-09T08:36:54;7.07;;;4.10;;
82722;SDS011;72450;42.008;21.356;2023-10-09T08:39:20;11.52;;;3.80;;
82722;SDS011;72450;42.008;21.356;2023-10-09T08:41:58;6.13;;;3.35;;
82722;SDS011;72450;42.008;21.356;2023-10-09T08:44:26;6.32;;;2.72;;
82722;SDS011;72450;42.008;21.356;2023-10-09T08:46:54;4.03;;;2.70;;
82722;SDS011;72450;42.008;21.356;2023-10-09T08:49:22;6.60;;;3.00;;
82722;SDS011;72450;42.008;21.356;2023-10-09T08:51:48;8.00;;;2.95;;
82722;SDS011;72450;42.008;21.356;2023-10-09T08:54:17;4.93;;;2.55;;
82722;SDS011;72450;42.008;21.356;2023-10-09T08:56:45;4.60;;;2.20;;
82722;SDS011;72450;42.008;21.356;2023-10-09T08:59:15;4.63;;;2.53;;
82722;SDS011;72450;42.008;21.356;2023-10-09T09:01:44;11.02;;;2.63;;
82722;SDS011;72450;42.008;21.356;2023-10-09T09:04:10;3.45;;;1.98;;
82722;SDS011;72450;42.008;21.356;2023-10-09T09:06:39;8.00;;;2.20;;
82722;SDS011;72450;42.008;21.356;2023-10-09T09:09:09;5.78;;;1.88;;
82722;SDS011;72450;42.008;21.356;2023-10-09T09:11:42;4.00;;;1.38;;
82722;SDS011;72450;42.008;21.356;2023-10-09T09:14:14;3.17;;;1.88;;
82722;SDS011;72450;42.008;21.356;2023-10-09T09:16:44;3.03;;;2.00;;
82722;SDS011;72450;42.008;21.356;2023-10-09T09:19:13;3.47;;;1.40;;
82722;SDS011;72450;42.008;21.356;2023-10-09T09:21:50;3.35;;;1.50;;
82722;SDS011;72450;42.008;21.356;2023-10-09T09:24:19;4.20;;;2.33;;
82722;SDS011;72450;42.008;21.356;2023-10-09T09:26:46;6.13;;;2.28;;
82722;SDS011;72450;42.008;21.356;2023-10-09T09:29:13;3.47;;;1.70;;
82722;SDS011;72450;42.008;21.356;2023-10-09T09:31:42;3.33;;;2.42;;
82722;SDS011;72450;42.008;21.356;2023-10-09T09:34:17;3.90;;;1.60;;
82722;SDS011;72450;42.008;21.356;2023-10-09T09:37:16;3.00;;;1.90;;
82722;SDS011;72450;42.008;21.356;2023-10-09T09:39:38;5.60;;;2.22;;
82722;SDS011;72450;42.008;21.356;2023-10-09T09:42:08;5.93;;;1.92;;
82722;SDS011;72450;42.008;21.356;2023-10-09T09:44:38;4.03;;;1.30;;
82722;SDS011;72450;42.008;21.356;2023-10-09T09:47:14;4.93;;;1.40;;
82722;SDS011;72450;42.008;21.356;2023-10-09T09:49:48;4.38;;;1.48;;
82722;SDS011;72450;42.008;21.356;2023-10-09T09:52:17;3.65;;;1.60;;
82722;SDS011;72450;42.008;21.356;2023-10-09T09:54:44;5.55;;;2.22;;
82722;SDS011;72450;42.008;21.356;2023-10-09T09:57:11;4.15;;;2.10;;
82722;SDS011;72450;42.008;21.356;2023-10-09T09:59:53;6.85;;;2.50;;
82722;SDS011;72450;42.008;21.356;2023-10-09T10:02:23;4.15;;;2.20;;
82722;SDS011;72450;42.008;21.356;2023-10-09T10:04:51;3.25;;;1.80;;
82722;SDS011;72450;42.008;21.356;2023-10-09T10:07:19;9.50;;;2.15;;
82722;SDS011;72450;42.008;21.356;2023-10-09T10:09:46;3.97;;;1.35;;
82722;SDS011;72450;42.008;21.356;2023-10-09T10:12:49;4.82;;;1.38;;
82722;SDS011;72450;42.008;21.356;2023-10-09T10:15:06;4.25;;;1.58;;
82722;SDS011;72450;42.008;21.356;2023-10-09T10:20:24;2.72;;;1.35;;
82722;SDS011;72450;42.008;21.356;2023-10-09T10:25:35;1.98;;;1.15;;
82722;SDS011;72450;42.008;21.356;2023-10-09T10:28:16;2.47;;;1.23;;
82722;SDS011;72450;42.008;21.356;2023-10-09T10:30:53;14.63;;;3.08;;
82722;SDS011;72450;42.008;21.356;2023-10-09T10:33:20;7.57;;;2.92;;
82722;SDS011;72450;42.008;21.356;2023-10-09T10:35:48;8.75;;;2.70;;
82722;SDS011;72450;42.008;21.356;2023-10-09T10:38:26;7.30;;;2.70;;
82722;SDS011;72450;42.008;21.356;2023-10-09T10:43:42;4.38;;;2.13;;
82722;SDS011;72450;42.008;21.356;2023-10-09T10:46:17;4.65;;;1.92;;
82722;SDS011;72450;42.008;21.356;2023-10-09T10:48:50;9.32;;;2.30;;
82722;SDS011;72450;42.008;21.356;2023-10-09T10:51:34;5.00;;;1.98;;
82722;SDS011;72450;42.008;21.356;2023-10-09T10:54:03;7.25;;;2.80;;
82722;SDS011;72450;42.008;21.356;2023-10-09T10:56:48;5.38;;;2.05;;
82722;SDS011;72450;42.008;21.356;2023-10-09T10:59:15;2.85;;;1.98;;
82722;SDS011;72450;42.008;21.356;2023-10-09T11:01:48;7.07;;;2.45;;
82722;SDS011;72450;42.008;21.356;2023-10-09T11:07:13;5.20;;;2.20;;
82722;SDS011;72450;42.008;21.356;2023-10-09T11:09:50;5.35;;;2.05;;
82722;SDS011;72450;42.008;21.356;2023-10-09T11:12:32;7.10;;;1.85;;
82722;SDS011;72450;42.008;21.356;2023-10-09T11:15:09;4.38;;;2.03;;
82722;SDS011;72450;42.008;21.356;2023-10-09T11:18:04;4.15;;;2.13;;
82722;SDS011;72450;42.008;21.356;2023-10-09T11:20:38;3.65;;;1.83;;
82722;SDS011;72450;42.008;21.356;2023-10-09T11:23:04;4.95;;;2.00;;
82722;SDS011;72450;42.008;21.356;2023-10-09T11:25:45;5.03;;;2.40;;
82722;SDS011;72450;42.008;21.356;2023-10-09T11:30:54;3.58;;;2.30;;
82722;SDS011;72450;42.008;21.356;2023-10-09T11:33:21;6.35;;;2.78;;
82722;SDS011;72450;42.008;21.356;2023-10-09T11:35:55;10.05;;;2.33;;
82722;SDS011;72450;42.008;21.356;2023-10-09T11:38:25;9.23;;;2.70;;
82722;SDS011;72450;42.008;21.356;2023-10-09T11:40:54;6.97;;;3.63;;
82722;SDS011;72450;42.008;21.356;2023-10-09T11:43:20;4.47;;;2.22;;
82722;SDS011;72450;42.008;21.356;2023-10-09T11:46:09;8.40;;;2.60;;
82722;SDS011;72450;42.008;21.356;2023-10-09T11:49:02;7.05;;;2.80;;
82722;SDS011;72450;42.008;21.356;2023-10-09T11:51:47;5.95;;;2.47;;
82722;SDS011;72450;42.008;21.356;2023-10-09T11:54:32;4.32;;;2.30;;
82722;SDS011;72450;42.008;21.356;2023-10-09T11:56:58;10.13;;;2.53;;
82722;SDS011;72450;42.008;21.356;2023-10-09T11:59:28;8.00;;;2.53;;
82722;SDS011;72450;42.008;21.356;2023-10-09T12:02:03;6.35;;;2.67;;
82722;SDS011;72450;42.008;21.356;2023-10-09T12:04:29;7.03;;;3.30;;
82722;SDS011;72450;42.008;21.356;2023-10-09T12:06:58;4.78;;;2.70;;
82722;SDS011;72450;42.008;21.356;2023-10-09T12:09:35;5.05;;;2.38;;
82722;SDS011;72450;42.008;21.356;2023-10-09T12:12:02;5.75;;;2.42;;
82722;SDS011;72450;42.008;21.356;2023-10-09T12:14:28;4.75;;;2.15;;
82722;SDS011;72450;42.008;21.356;2023-10-09T12:17:02;4.47;;;2.42;;
82722;SDS011;72450;42.008;21.356;2023-10-09T12:19:39;4.50;;;2.85;;
82722;SDS011;72450;42.008;21.356;2023-10-09T12:22:06;7.57;;;2.45;;
82722;SDS011;72450;42.008;21.356;2023-10-09T12:24:41;8.45;;;2.42;;
82722;SDS011;72450;42.008;21.356;2023-10-09T12:27:10;5.88;;;2.30;;
82722;SDS011;72450;42.008;21.356;2023-10-09T12:29:37;6.20;;;2.63;;
82722;SDS011;72450;42.008;21.356;2023-10-09T12:32:03;6.35;;;2.60;;
82722;SDS011;72450;42.008;21.356;2023-10-09T12:34:31;4.63;;;2.40;;
82722;SDS011;72450;42.008;21.356;2023-10-09T12:36:57;7.88;;;2.85;;
82722;SDS011;72450;42.008;21.356;2023-10-09T12:39:26;6.80;;;2.60;;
82722;SDS011;72450;42.008;21.356;2023-10-09T12:41:59;4.75;;;2.50;;
82722;SDS011;72450;42.008;21.356;2023-10-09T12:44:32;4.38;;;2.20;;
82722;SDS011;72450;42.008;21.356;2023-10-09T12:46:59;7.18;;;2.63;;
82722;SDS011;72450;42.008;21.356;2023-10-09T12:49:29;5.78;;;2.08;;
82722;SDS011;72450;42.008;21.356;2023-10-09T12:54:22;4.47;;;2.13;;
82722;SDS011;72450;42.008;21.356;2023-10-09T12:56:52;4.22;;;2.10;;
82722;SDS011;72450;42.008;21.356;2023-10-09T12:59:18;4.47;;;2.35;;
82722;SDS011;72450;42.008;21.356;2023-10-09T13:01:45;7.93;;;2.80;;
82722;SDS011;72450;42.008;21.356;2023-10-09T13:04:17;6.50;;;2.45;;
82722;SDS011;72450;42.008;21.356;2023-10-09T13:09:12;6.43;;;2.92;;
82722;SDS011;72450;42.008;21.356;2023-10-09T13:11:39;5.00;;;2.40;;
82722;SDS011;72450;42.008;21.356;2023-10-09T13:14:09;6.18;;;3.17;;
82722;SDS011;72450;42.008;21.356;2023-10-09T13:16:47;6.57;;;2.40;;
82722;SDS011;72450;42.008;21.356;2023-10-09T13:19:15;7.07;;;2.55;;
82722;SDS011;72450;42.008;21.356;2023-10-09T13:21:42;5.53;;;2.60;;
82722;SDS011;72450;42.008;21.356;2023-10-09T13:24:09;6.93;;;2.83;;
82722;SDS011;72450;42.008;21.356;2023-10-09T13:26:39;5.50;;;2.70;;
82722;SDS011;72450;42.008;21.356;2023-10-09T13:29:06;6.78;;;2.55;;
82722;SDS011;72450;42.008;21.356;2023-10-09T13:31:36;6.43;;;2.65;;
82722;SDS011;72450;42.008;21.356;2023-10-09T13:34:03;5.68;;;2.80;;
82722;SDS011;72450;42.008;21.356;2023-10-09T13:36:31;5.20;;;2.22;;
82722;SDS011;72450;42.008;21.356;2023-10-09T13:39:05;5.93;;;2.88;;
82722;SDS011;72450;42.008;21.356;2023-10-09T13:41:49;6.85;;;3.08;;
82722;SDS011;72450;42.008;21.356;2023-10-09T13:44:15;6.10;;;3.38;;
82722;SDS011;72450;42.008;21.356;2023-10-09T13:49:08;8.15;;;3.25;;
82722;SDS011;72450;42.008;21.356;2023-10-09T13:51:43;5.10;;;2.60;;
82722;SDS011;72450;42.008;21.356;2023-10-09T13:54:13;8.35;;;3.08;;
82722;SDS011;72450;42.008;21.356;2023-10-09T13:56:46;4.55;;;2.53;;
82722;SDS011;72450;42.008;21.356;2023-10-09T13:59:12;7.80;;;2.47;;
82722;SDS011;72450;42.008;21.356;2023-10-09T14:01:39;8.13;;;2.53;;
82722;SDS011;72450;42.008;21.356;2023-10-09T14:04:05;4.63;;;2.92;;
82722;SDS011;72450;42.008;21.356;2023-10-09T14:06:32;6.90;;;2.58;;
82722;SDS011;72450;42.008;21.356;2023-10-09T14:11:25;5.68;;;2.78;;
82722;SDS011;72450;42.008;21.356;2023-10-09T14:13:53;6.80;;;2.67;;
82722;SDS011;72450;42.008;21.356;2023-10-09T14:16:19;8.13;;;2.85;;
82722;SDS011;72450;42.008;21.356;2023-10-09T14:18:51;13.18;;;3.15;;
82722;SDS011;72450;42.008;21.356;2023-10-09T14:21:23;7.32;;;3.30;;
82722;SDS011;72450;42.008;21.356;2023-10-09T14:23:58;8.63;;;2.60;;
82722;SDS011;72450;42.008;21.356;2023-10-09T14:28:50;9.82;;;2.83;;
82722;SDS011;72450;42.008;21.356;2023-10-09T14:31:17;6.80;;;2.72;;
82722;SDS011;72450;42.008;21.356;2023-10-09T14:33:47;7.70;;;3.00;;
82722;SDS011;72450;42.008;21.356;2023-10-09T14:38:44;8.40;;;5.38;;
82722;SDS011;72450;42.008;21.356;2023-10-09T14:41:12;5.90;;;4.05;;
82722;SDS011;72450;42.008;21.356;2023-10-09T14:46:04;8.38;;;3.20;;
82722;SDS011;72450;42.008;21.356;2023-10-09T14:48:36;7.25;;;3.15;;
82722;SDS011;72450;42.008;21.356;2023-10-09T14:51:03;10.00;;;3.50;;
82722;SDS011;72450;42.008;21.356;2023-10-09T14:53:35;12.00;;;3.45;;
82722;SDS011;72450;42.008;21.356;2023-10-09T14:56:01;7.95;;;2.63;;
82722;SDS011;72450;42.008;21.356;2023-10-09T14:58:34;12.27;;;3.13;;
82722;SDS011;72450;42.008;21.356;2023-10-09T15:03:26;14.65;;;3.50;;
82722;SDS011;72450;42.008;21.356;2023-10-09T15:05:53;13.98;;;4.20;;
82722;SDS011;72450;42.008;21.356;2023-10-09T15:08:19;7.05;;;3.78;;
82722;SDS011;72450;42.008;21.356;2023-10-09T15:10:46;11.00;;;3.55;;
82722;SDS011;72450;42.008;21.356;2023-10-09T15:13:16;5.45;;;3.67;;
82722;SDS011;72450;42.008;21.356;2023-10-09T15:15:43;7.70;;;3.50;;
82722;SDS011;72450;42.008;21.356;2023-10-09T15:18:10;9.10;;;3.50;;
82722;SDS011;72450;42.008;21.356;2023-10-09T15:20:39;8.77;;;3.60;;
82722;SDS011;72450;42.008;21.356;2023-10-09T15:23:05;10.02;;;3.65;;
82722;SDS011;72450;42.008;21.356;2023-10-09T15:25:31;11.25;;;3.75;;
82722;SDS011;72450;42.008;21.356;2023-10-09T15:27:59;8.32;;;4.50;;
82722;SDS011;72450;42.008;21.356;2023-10-09T15:30:25;7.22;;;4.10;;
82722;SDS011;72450;42.008;21.356;2023-10-09T15:32:53;21.98;;;5.05;;
82722;SDS011;72450;42.008;21.356;2023-10-09T15:35:22;14.65;;;4.47;;
82722;SDS011;72450;42.008;21.356;2023-10-09T15:37:48;17.52;;;4.07;;
82722;SDS011;72450;42.008;21.356;2023-10-09T15:40:17;25.42;;;6.82;;
82722;SDS011;72450;42.008;21.356;2023-10-09T15:42:44;19.83;;;5.15;;
82722;SDS011;72450;42.008;21.356;2023-10-09T15:45:21;10.55;;;3.88;;
82722;SDS011;72450;42.008;21.356;2023-10-09T15:47:47;23.13;;;5.55;;
82722;SDS011;72450;42.008;21.356;2023-10-09T15:50:16;20.27;;;6.03;;
82722;SDS011;72450;42.008;21.356;2023-10-09T15:52:42;20.58;;;6.25;;
82722;SDS011;72450;42.008;21.356;2023-10-09T15:55:08;19.60;;;7.13;;
82722;SDS011;72450;42.008;21.356;2023-10-09T15:57:38;18.60;;;6.75;;